Flugplatz Wunstorf Airport

Bericht für ETNW

vom 28.05. um 11:20 UTC

Wind 9 kt aus 30°

Sichtweite 10 km oder mehr

gering bewölkt in 5200 ft

Temperatur 18.0°C

Taupunkt 3.0°C

Luftfeuchtigkeit 37%

Luftdruck 1032 hPa

ETNW 281120Z 03009KT 9999 FEW052 18/03 Q1032 BLU+BLU+

Prognose für ETNW

vom 28.05. um 10:00 UTC

Zwischen 11:00 UTC und 11:00 UTC

Wind 8 kt aus 330°

Sichtweite 10 km oder mehr

keine signifikanten Wettererscheinungen

gering bewölkt in 4000 ft

aufgelockert bewölkt in 24000 ft


Am 29.05. zwischen 00:00 UTC und 07:00 UTC zeitweise

Wind 3 kt aus 340°

Sichtweite 2500 m

feuchter Dunst

gering bewölkt in 26000 ft


Am 29.05. zwischen 02:00 UTC und 05:00 UTC mit einer Wahrscheinlichkeit von 30%

variable Windrichtung mit 2 kt

Sichtweite 1500 m

flacher Bodennebel

gering bewölkt in 28000 ft

TAF ETNW 281000Z 2811/2911 33008KT 9999 NSW FEW040 SCT240 TEMPO 2900/2907 34003KT 2500 BR FEW260 PROB30 2902/2905 VRB02KT 1500 MIFG FEW280 BY ETGL
Impressum